Buffalo, North Dakota
Current Conditions -  °F | °C
As of 11:55 PM on Friday 19 Dec 2014 (Local Time) from KBAC Reporting Station
Haze Haze  
Wind Chill: 17°   Ceiling: 300
Heat Index: 27°   Visibility: 1.7mi
Dew Point: 27°   Wind: 10mph
Humidity: 100%   Direction: 200°SSW
Pressure: 29.97"   Gusts: NA
Location:  46.92°N, 97.55°W
Report Text: KBAC 200555Z AUTO 20009KT 1 3/4SM BR OVC003 M03/M03 A2997 RMK AO2
Loading
Personal Weather Stations






























Interactive Weather Map New forecast layout! Learn more

10-Day Weather Forecast

Advertisements
Track Severe Weather on mobile